createdAt,value
2017-10-14T00:01:07.786Z,3.30
2017-10-14T00:03:38.560Z,3.50
2017-10-14T00:06:09.331Z,3.40
2017-10-14T00:08:40.130Z,3.30
2017-10-14T00:11:10.921Z,3.30
2017-10-14T00:13:41.668Z,3.60
2017-10-14T00:16:12.452Z,3.57
2017-10-14T00:18:43.252Z,3.53
2017-10-14T00:21:14.070Z,3.37
2017-10-14T00:23:44.857Z,3.60
2017-10-14T00:26:15.612Z,3.53
2017-10-14T00:28:46.410Z,3.40
2017-10-14T00:31:17.178Z,3.50
2017-10-14T00:33:47.954Z,3.30
2017-10-14T00:36:18.713Z,3.67
2017-10-14T00:38:49.500Z,3.10
2017-10-14T00:41:20.261Z,3.40
2017-10-14T00:43:51.034Z,3.40
2017-10-14T00:46:21.816Z,3.47
2017-10-14T00:48:52.585Z,3.33
2017-10-14T00:51:23.338Z,3.50
2017-10-14T00:53:54.130Z,3.50
2017-10-14T00:56:24.905Z,3.40
2017-10-14T00:58:55.707Z,3.40
2017-10-14T01:01:26.466Z,3.40
2017-10-14T01:03:57.231Z,3.73
2017-10-14T01:06:28.017Z,3.57
2017-10-14T01:08:58.790Z,3.50
2017-10-14T01:11:29.578Z,3.97
2017-10-14T01:14:00.379Z,3.33
2017-10-14T01:16:31.125Z,3.50
2017-10-14T01:19:01.905Z,3.70
2017-10-14T01:21:32.681Z,3.60
2017-10-14T01:24:03.437Z,3.43
2017-10-14T01:26:34.225Z,3.80
2017-10-14T01:29:04.974Z,3.57
2017-10-14T01:31:35.759Z,3.43
2017-10-14T01:34:06.517Z,4.23
2017-10-14T01:36:37.290Z,3.97
2017-10-14T01:39:08.062Z,3.67
2017-10-14T01:41:38.841Z,3.70
2017-10-14T01:44:09.596Z,3.63
2017-10-14T01:46:40.407Z,3.33
2017-10-14T01:49:11.162Z,3.30
2017-10-14T01:51:41.929Z,3.67
2017-10-14T01:54:12.701Z,3.83
2017-10-14T01:56:43.458Z,3.60
2017-10-14T01:59:14.256Z,3.80
2017-10-14T02:01:45.022Z,3.60
2017-10-14T02:04:15.781Z,3.70
2017-10-14T02:06:46.562Z,3.47
2017-10-14T02:09:17.329Z,3.60
2017-10-14T02:11:48.116Z,3.67
2017-10-14T02:14:18.881Z,3.10
2017-10-14T02:16:49.682Z,3.93
2017-10-14T02:19:20.466Z,3.37
2017-10-14T02:21:51.228Z,3.40
2017-10-14T02:24:22.031Z,3.47
2017-10-14T02:26:52.801Z,3.40
2017-10-14T02:29:23.561Z,3.50
2017-10-14T02:31:54.326Z,3.40
2017-10-14T02:34:25.097Z,3.47
2017-10-14T02:36:55.880Z,3.60
2017-10-14T02:39:26.655Z,3.40
2017-10-14T02:41:57.442Z,3.10
2017-10-14T02:44:28.197Z,3.27
2017-10-14T02:46:58.996Z,3.50
2017-10-14T02:49:29.762Z,3.30
2017-10-14T02:52:00.561Z,3.50
2017-10-14T02:54:31.321Z,3.33
2017-10-14T02:57:02.090Z,3.70
2017-10-14T02:59:32.864Z,3.40
2017-10-14T03:02:03.639Z,3.70
2017-10-14T03:04:34.411Z,3.63
2017-10-14T03:07:05.193Z,3.10
2017-10-14T03:09:35.961Z,3.07
2017-10-14T03:12:06.730Z,3.57
2017-10-14T03:14:37.486Z,3.57
2017-10-14T03:17:08.282Z,3.50
2017-10-14T03:19:39.070Z,3.17
2017-10-14T03:22:09.845Z,3.33
2017-10-14T03:24:40.614Z,3.60
2017-10-14T03:27:11.382Z,3.50
2017-10-14T03:29:42.155Z,3.17
2017-10-14T03:32:12.942Z,3.40
2017-10-14T03:34:43.734Z,3.27
2017-10-14T03:37:14.480Z,3.40
2017-10-14T03:39:45.263Z,3.60
2017-10-14T03:42:16.016Z,3.50
2017-10-14T03:44:46.774Z,3.23
2017-10-14T03:47:17.537Z,3.43
2017-10-14T03:49:48.309Z,3.53
2017-10-14T03:52:19.089Z,3.40
2017-10-14T03:54:49.853Z,3.47
2017-10-14T03:57:20.685Z,3.33
2017-10-14T03:59:51.454Z,3.40
2017-10-14T04:02:22.239Z,3.53
2017-10-14T04:04:53.021Z,3.20
2017-10-14T04:07:23.804Z,3.33
2017-10-14T04:09:54.569Z,3.53
2017-10-14T04:12:25.354Z,3.30
2017-10-14T04:14:56.117Z,3.60
2017-10-14T04:17:26.893Z,3.10
2017-10-14T04:19:57.673Z,3.50
2017-10-14T04:22:28.449Z,3.50
2017-10-14T04:24:59.241Z,3.77
2017-10-14T04:27:30.023Z,3.53
2017-10-14T04:30:00.796Z,3.43
2017-10-14T04:32:31.578Z,3.50
2017-10-14T04:35:02.361Z,3.13
2017-10-14T04:37:33.133Z,3.40
2017-10-14T04:40:03.933Z,3.43
2017-10-14T04:42:34.720Z,3.20
2017-10-14T04:45:05.490Z,3.03
2017-10-14T04:47:36.269Z,3.27
2017-10-14T04:50:07.049Z,3.50
2017-10-14T04:52:37.816Z,3.33
2017-10-14T04:55:08.586Z,3.23
2017-10-14T04:57:39.351Z,3.40
2017-10-14T05:00:10.140Z,3.33
2017-10-14T05:02:40.910Z,2.90
2017-10-14T05:05:11.689Z,3.30
2017-10-14T05:07:42.454Z,3.33
2017-10-14T05:10:13.241Z,3.27
2017-10-14T05:12:44.017Z,3.10
2017-10-14T05:15:14.790Z,3.87
2017-10-14T05:17:45.581Z,3.30
2017-10-14T05:20:16.345Z,3.50
2017-10-14T05:22:47.130Z,2.97
2017-10-14T05:25:17.889Z,2.90
2017-10-14T05:27:48.692Z,3.47
2017-10-14T05:30:19.493Z,3.17
2017-10-14T05:32:50.277Z,3.60
2017-10-14T05:35:21.039Z,3.00
2017-10-14T05:37:51.812Z,2.77
2017-10-14T05:40:22.612Z,3.47
2017-10-14T05:42:53.372Z,3.50
2017-10-14T05:45:24.163Z,3.33
2017-10-14T05:47:54.920Z,3.60
2017-10-14T05:50:25.712Z,2.80
2017-10-14T05:52:56.461Z,3.43
2017-10-14T05:55:27.241Z,4.03
2017-10-14T05:57:58.015Z,3.40
2017-10-14T06:00:28.776Z,3.10
2017-10-14T06:02:59.549Z,3.20
2017-10-14T06:05:30.350Z,3.27
2017-10-14T06:08:01.125Z,3.40
2017-10-14T06:10:31.884Z,3.97
2017-10-14T06:13:02.662Z,3.23
2017-10-14T06:15:33.413Z,2.90
2017-10-14T06:18:04.179Z,3.17
2017-10-14T06:20:34.965Z,3.00
2017-10-14T06:23:05.721Z,2.90
2017-10-14T06:25:36.517Z,2.90
2017-10-14T06:28:07.289Z,3.03
2017-10-14T06:30:38.070Z,3.00
2017-10-14T06:33:08.871Z,3.23
2017-10-14T06:35:39.646Z,4.00
2017-10-14T06:38:10.425Z,3.40
2017-10-14T06:40:41.188Z,3.00
2017-10-14T06:43:11.977Z,3.23
2017-10-14T06:45:42.789Z,3.10
2017-10-14T06:48:13.561Z,3.30
2017-10-14T06:50:44.342Z,3.17
2017-10-14T06:53:15.141Z,3.13
2017-10-14T06:55:45.901Z,3.63
2017-10-14T06:58:16.702Z,3.47
2017-10-14T07:00:47.459Z,3.30
2017-10-14T07:03:18.233Z,3.00
2017-10-14T07:05:49.010Z,3.30
2017-10-14T07:08:20.101Z,3.40
2017-10-14T07:10:51.409Z,4.10
2017-10-14T07:13:22.162Z,3.20
2017-10-14T07:15:52.950Z,3.83
2017-10-14T07:18:23.718Z,3.57
2017-10-14T07:20:54.473Z,3.60
2017-10-14T07:23:25.252Z,3.50
2017-10-14T07:25:56.034Z,3.20
2017-10-14T07:28:26.802Z,3.57
2017-10-14T07:30:57.570Z,3.13
2017-10-14T07:33:28.330Z,3.80
2017-10-14T07:35:59.110Z,3.50
2017-10-14T07:38:29.874Z,4.70
2017-10-14T07:41:00.642Z,3.50
2017-10-14T07:43:31.419Z,3.40
2017-10-14T07:46:02.177Z,3.50
2017-10-14T07:48:32.949Z,3.70
2017-10-14T07:51:03.749Z,3.67
2017-10-14T07:53:34.510Z,3.93
2017-10-14T07:56:05.266Z,3.43
2017-10-14T07:58:36.073Z,3.13
2017-10-14T08:01:06.841Z,3.30
2017-10-14T08:03:38.538Z,3.60
2017-10-14T08:06:09.334Z,3.23
2017-10-14T08:08:40.114Z,3.57
2017-10-14T08:11:10.889Z,3.60
2017-10-14T08:13:41.670Z,3.30
2017-10-14T08:16:12.490Z,3.30
2017-10-14T08:18:43.251Z,3.00
2017-10-14T08:21:14.048Z,3.30
2017-10-14T08:23:44.801Z,3.30
2017-10-14T08:26:15.608Z,3.20
2017-10-14T08:28:46.369Z,3.33
2017-10-14T08:31:17.132Z,3.40
2017-10-14T08:33:47.925Z,3.40
2017-10-14T08:36:18.681Z,3.30
2017-10-14T08:38:49.470Z,3.30
2017-10-14T08:41:20.221Z,3.17
2017-10-14T08:43:50.997Z,3.77
2017-10-14T08:46:21.790Z,3.40
2017-10-14T08:48:52.553Z,2.87
2017-10-14T08:51:23.343Z,3.40
2017-10-14T08:53:54.105Z,3.20
2017-10-14T08:56:24.893Z,3.27
2017-10-14T08:58:55.665Z,3.17
2017-10-14T09:01:26.450Z,3.20
2017-10-14T09:03:57.205Z,3.30
2017-10-14T09:06:28.019Z,3.30
2017-10-14T09:08:58.780Z,3.40
2017-10-14T09:11:29.539Z,3.30
2017-10-14T09:14:00.328Z,3.20
2017-10-14T09:16:31.081Z,3.53
2017-10-14T09:19:01.859Z,3.40
2017-10-14T09:21:32.619Z,3.33
2017-10-14T09:24:03.411Z,3.17
2017-10-14T09:26:34.145Z,3.20
2017-10-14T09:29:04.937Z,3.53
2017-10-14T09:31:35.711Z,3.20
2017-10-14T09:34:06.490Z,3.10
2017-10-14T09:36:37.270Z,2.93
2017-10-14T09:39:08.054Z,3.60
2017-10-14T09:41:38.810Z,3.03
2017-10-14T09:44:09.581Z,3.40
2017-10-14T09:46:40.344Z,3.20
2017-10-14T09:49:11.117Z,2.80
2017-10-14T09:51:41.911Z,3.20
2017-10-14T09:54:12.677Z,3.90
2017-10-14T09:56:43.448Z,2.90
2017-10-14T09:59:14.218Z,3.03
2017-10-14T10:01:45.031Z,3.17
2017-10-14T10:04:15.781Z,3.30
2017-10-14T10:06:46.569Z,2.90
2017-10-14T10:09:17.390Z,3.20
2017-10-14T10:11:48.170Z,3.13
2017-10-14T10:14:18.926Z,3.30
2017-10-14T10:16:49.722Z,3.10
2017-10-14T10:19:20.490Z,3.07
2017-10-14T10:21:51.243Z,3.10
2017-10-14T10:24:22.058Z,3.43
2017-10-14T10:26:52.825Z,3.33
2017-10-14T10:29:23.608Z,3.50
2017-10-14T10:31:54.430Z,2.90
2017-10-14T10:34:25.199Z,3.20
2017-10-14T10:36:55.965Z,3.00
2017-10-14T10:39:26.717Z,3.27
2017-10-14T10:41:57.533Z,3.27
2017-10-14T10:44:28.283Z,3.30
2017-10-14T10:46:59.061Z,3.50
2017-10-14T10:49:29.836Z,3.20
2017-10-14T10:52:00.637Z,3.40
2017-10-14T10:54:31.397Z,3.40
2017-10-14T10:57:02.157Z,3.40
2017-10-14T10:59:32.970Z,3.50
2017-10-14T11:02:03.738Z,3.20
2017-10-14T11:04:34.509Z,3.77
2017-10-14T11:07:05.289Z,3.30
2017-10-14T11:09:36.058Z,3.50
2017-10-14T11:12:06.849Z,3.37
2017-10-14T11:14:37.609Z,3.43
2017-10-14T11:17:08.393Z,5.30
2017-10-14T11:19:39.177Z,3.47
2017-10-14T11:22:09.952Z,3.27
2017-10-14T11:24:40.741Z,3.27
2017-10-14T11:27:11.529Z,3.60
2017-10-14T11:29:42.306Z,3.70
2017-10-14T11:32:13.111Z,3.87
2017-10-14T11:34:43.893Z,3.60
2017-10-14T11:37:14.658Z,3.60
2017-10-14T11:39:45.437Z,3.63
2017-10-14T11:42:16.204Z,3.27
2017-10-14T11:44:46.983Z,3.20
2017-10-14T11:47:17.769Z,3.40
2017-10-14T11:49:48.544Z,3.10
2017-10-14T11:52:19.322Z,3.47
2017-10-14T11:54:50.094Z,3.07
2017-10-14T11:57:20.896Z,3.30
2017-10-14T11:59:51.642Z,3.30
2017-10-14T12:02:23.026Z,3.60
2017-10-14T12:04:53.819Z,3.10
2017-10-14T12:07:24.571Z,3.90
2017-10-14T12:09:55.330Z,3.40
2017-10-14T12:12:26.100Z,3.20
2017-10-14T12:14:56.864Z,3.10
2017-10-14T12:17:27.665Z,3.60
2017-10-14T12:19:58.454Z,3.23
2017-10-14T12:22:29.234Z,3.60
2017-10-14T12:24:59.997Z,3.30
2017-10-14T12:27:30.786Z,3.10
2017-10-14T12:30:01.557Z,3.30
2017-10-14T12:32:32.353Z,3.67
2017-10-14T12:35:03.129Z,3.33
2017-10-14T12:37:33.889Z,3.30
2017-10-14T12:40:04.681Z,3.27
2017-10-14T12:42:35.449Z,3.40
2017-10-14T12:45:06.229Z,3.70
2017-10-14T12:47:37.042Z,3.20
2017-10-14T12:50:07.838Z,3.50
2017-10-14T12:52:38.594Z,3.30
2017-10-14T12:55:09.370Z,3.10
2017-10-14T12:57:40.145Z,3.20
2017-10-14T13:00:10.941Z,3.50
2017-10-14T13:02:41.710Z,3.33
2017-10-14T13:05:12.505Z,3.27
2017-10-14T13:07:43.254Z,3.20
2017-10-14T13:10:14.037Z,3.20
2017-10-14T13:12:44.793Z,3.63
2017-10-14T13:15:15.606Z,3.20
2017-10-14T13:17:46.373Z,3.80
2017-10-14T13:20:17.148Z,3.33
2017-10-14T13:22:47.889Z,3.20
2017-10-14T13:25:18.678Z,3.20
2017-10-14T13:27:49.454Z,3.10
2017-10-14T13:30:20.226Z,3.50
2017-10-14T13:32:51.048Z,3.53
2017-10-14T13:35:21.799Z,3.60
2017-10-14T13:37:52.581Z,3.23
2017-10-14T13:40:23.389Z,3.53
2017-10-14T13:42:54.150Z,3.13
2017-10-14T13:45:24.929Z,3.30
2017-10-14T13:47:55.713Z,3.30
2017-10-14T13:50:26.527Z,3.30
2017-10-14T13:52:57.277Z,3.50
2017-10-14T13:55:28.046Z,3.47
2017-10-14T13:57:58.848Z,3.37
2017-10-14T14:00:29.637Z,3.17
2017-10-14T14:03:00.413Z,3.20
2017-10-14T14:05:31.175Z,3.17
2017-10-14T14:08:01.997Z,3.10
2017-10-14T14:10:32.745Z,3.10
2017-10-14T14:13:03.567Z,3.00
2017-10-14T14:15:34.309Z,3.07
2017-10-14T14:18:05.161Z,3.30
2017-10-14T14:20:35.917Z,3.17
2017-10-14T14:23:06.710Z,3.43
2017-10-14T14:25:37.473Z,3.47
2017-10-14T14:28:08.270Z,3.40
2017-10-14T14:30:39.041Z,3.33
2017-10-14T14:33:09.829Z,3.30
2017-10-14T14:35:40.610Z,3.97
2017-10-14T14:38:11.393Z,3.43
2017-10-14T14:40:42.142Z,3.23
2017-10-14T14:43:12.929Z,3.10
2017-10-14T14:45:43.697Z,3.13
2017-10-14T14:48:14.482Z,3.47
2017-10-14T14:50:45.263Z,3.33
2017-10-14T14:53:16.042Z,3.40
2017-10-14T14:55:46.839Z,3.70
2017-10-14T14:58:17.609Z,3.20
2017-10-14T15:00:48.433Z,3.37
2017-10-14T15:03:19.189Z,3.50
2017-10-14T15:05:49.999Z,3.50
2017-10-14T15:08:20.761Z,4.07
2017-10-14T15:10:51.537Z,3.80
2017-10-14T15:13:22.288Z,3.40
2017-10-14T15:15:53.060Z,3.50
2017-10-14T15:18:23.850Z,3.27
2017-10-14T15:20:54.600Z,3.30
2017-10-14T15:23:25.394Z,3.20
2017-10-14T15:25:56.156Z,3.10
2017-10-14T15:28:26.960Z,3.80
2017-10-14T15:30:57.743Z,3.80
2017-10-14T15:33:28.497Z,3.30
2017-10-14T15:35:59.265Z,3.57
2017-10-14T15:38:30.049Z,3.17
2017-10-14T15:41:00.830Z,2.90
2017-10-14T15:43:32.205Z,3.43
2017-10-14T15:46:03.237Z,3.20
2017-10-14T15:48:34.025Z,3.30
2017-10-14T15:51:04.802Z,3.50
2017-10-14T15:53:35.580Z,3.40
2017-10-14T15:56:06.366Z,3.53
2017-10-14T15:58:37.129Z,3.50
2017-10-14T16:01:07.912Z,3.50
2017-10-14T16:03:38.685Z,3.57
2017-10-14T16:06:09.457Z,3.53
2017-10-14T16:08:40.232Z,3.70
2017-10-14T16:11:11.032Z,3.23
2017-10-14T16:13:41.877Z,3.53
2017-10-14T16:16:12.662Z,3.43
2017-10-14T16:18:43.467Z,3.50
2017-10-14T16:21:14.229Z,3.50
2017-10-14T16:23:45.006Z,3.33
2017-10-14T16:26:15.750Z,3.30
2017-10-14T16:28:46.529Z,3.07
2017-10-14T16:31:17.356Z,3.73
2017-10-14T16:33:48.139Z,3.27
2017-10-14T16:36:18.909Z,3.70
2017-10-14T16:38:49.677Z,3.73
2017-10-14T16:41:20.458Z,3.80
2017-10-14T16:43:51.227Z,4.20
2017-10-14T16:46:21.981Z,3.97
2017-10-14T16:48:52.793Z,4.00
2017-10-14T16:51:23.581Z,3.57
2017-10-14T16:53:54.385Z,3.77
2017-10-14T16:56:25.162Z,4.00
2017-10-14T16:58:56.640Z,4.20
2017-10-14T17:01:27.414Z,3.57
2017-10-14T17:03:58.182Z,3.87
2017-10-14T17:06:28.941Z,3.97
2017-10-14T17:08:59.740Z,4.33
2017-10-14T17:11:30.513Z,3.90
2017-10-14T17:14:01.273Z,4.47
2017-10-14T17:16:32.314Z,4.07
2017-10-14T17:19:03.075Z,3.70
2017-10-14T17:21:33.854Z,4.57
2017-10-14T17:24:04.630Z,3.83
2017-10-14T17:26:35.402Z,4.10
2017-10-14T17:29:06.169Z,3.93
2017-10-14T17:31:36.970Z,4.70
2017-10-14T17:34:07.731Z,4.60
2017-10-14T17:36:38.546Z,4.60
2017-10-14T17:39:09.334Z,4.40
2017-10-14T17:41:40.102Z,4.40
2017-10-14T17:44:10.897Z,5.30
2017-10-14T17:46:41.701Z,4.50
2017-10-14T17:49:12.461Z,4.60
2017-10-14T17:51:43.253Z,4.70
2017-10-14T17:54:14.018Z,4.53
2017-10-14T17:56:44.786Z,4.27
2017-10-14T17:59:15.594Z,4.73
2017-10-14T18:01:46.361Z,4.70
2017-10-14T18:04:17.145Z,4.77
2017-10-14T18:06:47.915Z,4.70
2017-10-14T18:09:18.673Z,5.20
2017-10-14T18:11:49.478Z,4.60
2017-10-14T18:14:20.226Z,4.83
2017-10-14T18:16:51.003Z,5.07
2017-10-14T18:19:21.773Z,4.50
2017-10-14T18:21:52.557Z,4.17
2017-10-14T18:24:23.328Z,4.90
2017-10-14T18:26:54.097Z,4.60
2017-10-14T18:29:24.886Z,4.50
2017-10-14T18:31:55.662Z,4.67
2017-10-14T18:34:26.762Z,5.13
2017-10-14T18:36:57.558Z,5.00
2017-10-14T18:39:28.332Z,4.57
2017-10-14T18:41:59.105Z,4.67
2017-10-14T18:44:29.889Z,4.63
2017-10-14T18:47:00.653Z,4.77
2017-10-14T18:49:32.021Z,4.73
2017-10-14T18:52:02.786Z,4.63
2017-10-14T18:54:33.562Z,4.67
2017-10-14T18:57:04.357Z,5.20
2017-10-14T18:59:35.143Z,4.50
2017-10-14T19:02:05.909Z,4.73
2017-10-14T19:04:36.688Z,4.23
2017-10-14T19:07:07.462Z,4.47
2017-10-14T19:09:38.240Z,5.13
2017-10-14T19:12:09.002Z,4.80
2017-10-14T19:14:39.789Z,5.37
2017-10-14T19:17:10.581Z,4.33
2017-10-14T19:19:41.373Z,4.73
2017-10-14T19:22:12.172Z,4.83
2017-10-14T19:24:42.965Z,5.00
2017-10-14T19:27:13.722Z,4.53
2017-10-14T19:29:44.501Z,4.53
2017-10-14T19:32:15.279Z,4.97
2017-10-14T19:34:46.054Z,4.87
2017-10-14T19:37:16.849Z,5.17
2017-10-14T19:39:47.608Z,5.20
2017-10-14T19:42:18.370Z,5.17
2017-10-14T19:44:49.445Z,5.40
2017-10-14T19:47:20.218Z,4.60
2017-10-14T19:49:51.034Z,4.93
2017-10-14T19:52:21.793Z,4.70
2017-10-14T19:54:52.570Z,4.73
2017-10-14T19:57:23.353Z,5.07
2017-10-14T19:59:54.133Z,5.00
2017-10-14T20:02:24.910Z,4.97
2017-10-14T20:04:55.731Z,4.90
2017-10-14T20:07:26.488Z,5.17
2017-10-14T20:09:57.270Z,4.70
2017-10-14T20:12:28.041Z,5.37
2017-10-14T20:14:58.819Z,5.50
2017-10-14T20:17:29.576Z,5.37
2017-10-14T20:20:00.375Z,5.30
2017-10-14T20:22:31.113Z,5.57
2017-10-14T20:25:01.914Z,6.20
2017-10-14T20:27:32.685Z,6.13
2017-10-14T20:30:03.482Z,5.80
2017-10-14T20:32:34.245Z,6.10
2017-10-14T20:35:05.034Z,6.47
2017-10-14T20:37:35.818Z,6.40
2017-10-14T20:40:06.582Z,5.90
2017-10-14T20:42:37.374Z,5.93
2017-10-14T20:45:08.142Z,5.70
2017-10-14T20:47:38.918Z,5.93
2017-10-14T20:50:09.689Z,6.53
2017-10-14T20:52:40.477Z,6.13
2017-10-14T20:55:11.242Z,5.70
2017-10-14T20:57:42.025Z,5.83
2017-10-14T21:00:12.792Z,5.63
2017-10-14T21:02:43.569Z,5.80
2017-10-14T21:05:14.330Z,5.70
2017-10-14T21:07:45.139Z,5.73
2017-10-14T21:10:15.902Z,5.70
2017-10-14T21:12:46.684Z,5.30
2017-10-14T21:15:17.444Z,5.20
2017-10-14T21:17:48.225Z,5.57
2017-10-14T21:20:19.372Z,5.67
2017-10-14T21:22:50.122Z,5.70
2017-10-14T21:25:20.900Z,5.57
2017-10-14T21:27:51.693Z,5.60
2017-10-14T21:30:22.481Z,5.80
2017-10-14T21:32:53.255Z,5.97
2017-10-14T21:35:24.040Z,6.03
2017-10-14T21:37:54.830Z,5.37
2017-10-14T21:40:25.601Z,5.57
2017-10-14T21:42:56.379Z,5.60
2017-10-14T21:45:27.137Z,5.40
2017-10-14T21:47:57.938Z,5.80
2017-10-14T21:50:28.694Z,6.03
2017-10-14T21:52:59.833Z,5.57
2017-10-14T21:55:30.582Z,5.80
2017-10-14T21:58:01.357Z,5.97
2017-10-14T22:00:32.117Z,5.77
2017-10-14T22:03:02.894Z,6.37
2017-10-14T22:05:33.662Z,5.60
2017-10-14T22:08:04.447Z,5.47
2017-10-14T22:10:35.212Z,5.50
2017-10-14T22:13:05.989Z,5.53
2017-10-14T22:15:36.762Z,5.80
2017-10-14T22:18:07.551Z,5.63
2017-10-14T22:20:38.609Z,5.87
2017-10-14T22:23:09.411Z,6.43
2017-10-14T22:25:40.180Z,5.50
2017-10-14T22:28:12.848Z,5.73
2017-10-14T22:30:43.590Z,6.10
2017-10-14T22:33:14.358Z,5.67
2017-10-14T22:35:45.150Z,6.23
2017-10-14T22:38:15.909Z,6.13
2017-10-14T22:40:46.658Z,5.90
2017-10-14T22:43:17.437Z,5.77
2017-10-14T22:45:48.214Z,5.90
2017-10-14T22:48:18.981Z,5.80
2017-10-14T22:50:49.756Z,5.70
2017-10-14T22:53:20.517Z,5.97
2017-10-14T22:55:51.281Z,5.60
2017-10-14T22:58:22.049Z,5.83
2017-10-14T23:00:52.809Z,5.80
2017-10-14T23:03:23.577Z,5.87
2017-10-14T23:05:54.337Z,6.93
2017-10-14T23:08:26.269Z,5.70
2017-10-14T23:10:57.029Z,5.70
2017-10-14T23:13:27.800Z,6.07
2017-10-14T23:15:58.556Z,6.17
2017-10-14T23:18:29.316Z,5.90
2017-10-14T23:21:00.118Z,5.80
2017-10-14T23:23:30.891Z,6.00
2017-10-14T23:26:01.662Z,5.93
2017-10-14T23:28:32.413Z,6.20
2017-10-14T23:31:03.182Z,5.90
2017-10-14T23:33:33.961Z,6.00
2017-10-14T23:36:04.705Z,5.73
2017-10-14T23:38:35.489Z,6.07
2017-10-14T23:41:06.257Z,5.83
2017-10-14T23:43:37.054Z,6.00
2017-10-14T23:46:07.814Z,6.00
2017-10-14T23:48:38.601Z,5.60
2017-10-14T23:51:09.360Z,6.20
2017-10-14T23:53:40.132Z,5.93
2017-10-14T23:56:10.917Z,5.80
2017-10-14T23:58:41.705Z,5.60
